Time;durP1;ratioP1;P1;durP2;ratioP2;P2;SDS_P1;SDS_P2;PMS_P1;PMS_P2;Temp;Humidity;BMP_temperature;BMP_pressure;BME280_temperature;BME280_humidity;BME280_pressure;Samples;Min_cycle;Max_cycle;Signal;HPM_P1;HPM_P2
2022/01/15 00:00:38;;;;;;;14.40;6.10;;;;;;;0.83;86.34;99266.44;105898;1277;25362;-80
2022/01/15 00:03:11;;;;;;;18.10;6.30;;;;;;;0.82;86.36;99268.69;106132;1277;137860;-80
2022/01/15 00:05:38;;;;;;;26.10;8.80;;;;;;;0.80;86.49;99269.11;106627;1277;22571;-80
2022/01/15 00:08:06;;;;;;;20.50;8.30;;;;;;;0.77;86.69;99270.77;106719;1277;141854;-80
2022/01/15 00:10:32;;;;;;;29.70;9.20;;;;;;;0.77;86.57;99268.10;106638;1278;22593;-80
2022/01/15 00:13:01;;;;;;;24.40;8.60;;;;;;;0.76;86.71;99261.55;106207;1277;25277;-80
2022/01/15 00:15:32;;;;;;;19.50;8.60;;;;;;;0.74;86.71;99255.39;105966;1277;138073;-81
2022/01/15 00:18:06;;;;;;;18.90;7.80;;;;;;;0.72;86.88;99251.33;106121;1277;22547;-79
2022/01/15 00:20:32;;;;;;;23.80;9.80;;;;;;;0.69;86.92;99255.16;106265;1277;137807;-79
2022/01/15 00:22:59;;;;;;;22.90;7.10;;;;;;;0.67;86.84;99257.00;106017;1277;22628;-79
2022/01/15 00:25:28;;;;;;;19.50;7.70;;;;;;;0.65;86.85;99257.20;106115;1277;23967;-79
2022/01/15 00:27:55;;;;;;;21.10;7.20;;;;;;;0.65;86.53;99258.66;105909;1277;138568;-81
2022/01/15 00:30:22;;;;;;;16.00;6.20;;;;;;;0.62;86.54;99256.79;106050;1277;25258;-79
2022/01/15 00:32:49;;;;;;;15.40;6.40;;;;;;;0.60;86.62;99261.30;105873;1277;137758;-79
2022/01/15 00:35:17;;;;;;;21.10;8.00;;;;;;;0.56;86.36;99262.81;105986;1277;25193;-79
2022/01/15 00:37:43;;;;;;;20.70;7.10;;;;;;;0.54;86.41;99269.77;106019;1277;141204;-78
2022/01/15 00:40:14;;;;;;;21.50;7.00;;;;;;;0.52;86.42;99274.83;106148;1277;22580;-78
2022/01/15 00:42:41;;;;;;;21.20;7.00;;;;;;;0.51;86.20;99274.20;106053;1277;22711;-78
2022/01/15 00:45:22;;;;;;;17.80;6.70;;;;;;;0.50;86.40;99273.05;106154;1277;137676;-79
2022/01/15 00:47:50;;;;;;;20.60;7.70;;;;;;;0.47;86.45;99268.90;105757;1277;24227;-78
2022/01/15 00:50:18;;;;;;;19.70;7.50;;;;;;;0.44;86.42;99265.13;106138;1277;137745;-78
2022/01/15 00:52:44;;;;;;;19.10;7.30;;;;;;;0.41;86.34;99267.37;106019;1277;23017;-78
2022/01/15 00:55:13;;;;;;;21.50;6.70;;;;;;;0.39;86.55;99269.34;105914;1277;26488;-77
2022/01/15 00:57:40;;;;;;;22.60;6.70;;;;;;;0.38;86.10;99268.00;106092;1277;138186;-77
2022/01/15 01:00:10;;;;;;;16.20;6.80;;;;;;;0.37;86.22;99268.83;105994;1277;22768;-77
2022/01/15 01:02:37;;;;;;;20.50;7.10;;;;;;;0.35;86.33;99269.82;105823;1277;137759;-79
2022/01/15 01:05:04;;;;;;;23.30;7.50;;;;;;;0.33;86.24;99268.23;105977;1277;22565;-77
2022/01/15 01:07:30;;;;;;;19.30;7.10;;;;;;;0.31;86.31;99269.33;105996;1277;25340;-77
2022/01/15 01:23:12;;;;;;;26.40;8.80;;;;;;;0.25;86.46;99284.09;105765;1277;22547;-76
2022/01/15 01:25:44;;;;;;;17.40;7.00;;;;;;;0.24;86.39;99285.76;105821;1277;138158;-76
2022/01/15 01:28:21;;;;;;;18.60;7.10;;;;;;;0.23;86.29;99285.56;106079;1277;24296;-76
2022/01/15 01:30:55;;;;;;;18.10;7.50;;;;;;;0.20;86.46;99284.77;105978;1277;22715;-76
2022/01/15 01:36:02;;;;;;;16.00;7.40;;;;;;;0.17;86.27;99288.80;105991;1277;22586;-76
2022/01/15 01:38:34;;;;;;;20.90;7.30;;;;;;;0.15;86.41;99293.40;105856;1277;138176;-76
2022/01/15 01:41:01;;;;;;;20.50;7.10;;;;;;;0.14;85.89;99287.66;106019;1277;25497;-76
2022/01/15 01:43:44;;;;;;;18.70;7.30;;;;;;;0.11;86.11;99291.14;105948;1280;22961;-77
2022/01/15 01:46:21;;;;;;;19.50;7.90;;;;;;;0.08;86.08;99294.54;105708;1277;137441;-76
2022/01/15 01:48:48;;;;;;;20.50;8.30;;;;;;;0.06;86.14;99292.92;105750;1277;24273;-76
2022/01/15 01:51:24;;;;;;;20.30;9.20;;;;;;;0.05;86.21;99293.41;105837;1277;138040;-76
2022/01/15 01:53:52;;;;;;;24.50;7.90;;;;;;;0.05;86.32;99288.28;105984;1277;25331;-76
2022/01/15 01:56:19;;;;;;;21.80;7.60;;;;;;;0.05;86.56;99288.95;105705;1280;137581;-76
2022/01/15 01:58:46;;;;;;;16.20;7.40;;;;;;;0.04;86.50;99291.02;105952;1277;22570;-75
2022/01/15 02:01:13;;;;;;;13.10;6.30;;;;;;;0.02;86.10;99286.25;106049;1277;22591;-76
2022/01/15 02:03:39;;;;;;;18.20;7.70;;;;;;;-0.01;86.20;99283.16;106007;1280;137476;-76
2022/01/15 02:06:06;;;;;;;20.60;7.80;;;;;;;-0.04;85.90;99283.79;106046;1277;22562;-76
2022/01/15 02:08:37;;;;;;;25.70;8.20;;;;;;;-0.05;85.99;99284.80;105890;1277;138480;-78
2022/01/15 02:11:06;;;;;;;24.20;7.40;;;;;;;-0.04;86.02;99290.77;105800;1277;22549;-78
2022/01/15 02:13:37;;;;;;;16.10;6.70;;;;;;;-0.05;86.05;99291.54;105987;1277;25515;-76
2022/01/15 02:16:04;;;;;;;18.40;7.40;;;;;;;-0.07;86.08;99290.73;105783;1277;138315;-76
2022/01/15 02:18:30;;;;;;;19.90;7.80;;;;;;;-0.10;85.88;99289.56;106002;1275;24981;-76
2022/01/15 02:23:47;;;;;;;19.20;6.60;;;;;;;-0.13;85.52;99286.14;105921;1277;22597;-76
2022/01/15 02:26:19;;;;;;;19.50;7.50;;;;;;;-0.13;85.82;99286.68;105976;1277;138014;-77
2022/01/15 02:28:52;;;;;;;18.90;6.90;;;;;;;-0.14;85.76;99285.34;106039;1277;22570;-76
2022/01/15 02:31:20;;;;;;;15.50;7.10;;;;;;;-0.15;85.85;99284.20;106153;1277;22611;-77
2022/01/15 02:33:49;;;;;;;17.90;7.60;;;;;;;-0.16;85.80;99283.65;106099;1277;137525;-77
2022/01/15 02:36:19;;;;;;;18.00;7.50;;;;;;;-0.18;85.83;99284.36;106151;1277;23960;-76
2022/01/15 02:38:46;;;;;;;20.50;7.40;;;;;;;-0.20;85.77;99288.77;105947;1277;140509;-77
2022/01/15 02:41:13;;;;;;;19.80;7.30;;;;;;;-0.19;85.60;99287.67;106053;1277;22544;-77
2022/01/15 02:43:39;;;;;;;19.40;7.40;;;;;;;-0.20;85.69;99289.27;106071;1277;25375;-78
2022/01/15 02:48:59;;;;;;;25.00;8.50;;;;;;;-0.23;86.02;99292.97;105956;1280;22554;-77
2022/01/15 02:51:31;;;;;;;22.40;8.40;;;;;;;-0.25;85.98;99290.31;105943;1277;138591;-78
2022/01/15 02:53:57;;;;;;;23.50;7.60;;;;;;;-0.25;86.02;99296.45;106082;1277;23073;-78
2022/01/15 02:56:28;;;;;;;20.30;8.20;;;;;;;-0.25;86.44;99299.87;105849;1277;137832;-78
2022/01/15 02:58:55;;;;;;;21.50;7.40;;;;;;;-0.27;86.29;99297.88;106047;1277;22576;-78
2022/01/15 03:01:21;;;;;;;19.70;7.60;;;;;;;-0.30;86.22;99302.28;105917;1277;22606;-78
2022/01/15 03:03:49;;;;;;;26.00;9.00;;;;;;;-0.33;86.19;99305.63;105928;1277;138268;-78
2022/01/15 03:06:18;;;;;;;18.40;7.50;;;;;;;-0.34;86.22;99307.19;106065;1277;22701;-78
2022/01/15 03:08:48;;;;;;;16.90;7.70;;;;;;;-0.34;86.30;99306.31;105906;1277;138607;-78
2022/01/15 03:11:15;;;;;;;22.80;7.20;;;;;;;-0.35;86.23;99306.03;106168;1277;22566;-80
2022/01/15 03:13:42;;;;;;;23.70;7.60;;;;;;;-0.36;86.32;99306.80;106297;1277;25326;-79
2022/01/15 03:16:12;;;;;;;21.80;7.20;;;;;;;-0.37;86.47;99302.64;105896;1277;138107;-79
2022/01/15 03:18:39;;;;;;;19.60;8.40;;;;;;;-0.40;86.33;99301.72;106114;1277;22562;-79
2022/01/15 03:21:05;;;;;;;19.80;9.40;;;;;;;-0.42;86.49;99302.27;106057;1277;138199;-79
2022/01/15 03:23:31;;;;;;;22.50;8.40;;;;;;;-0.44;86.61;99298.11;106075;1277;22566;-79
2022/01/15 03:25:57;;;;;;;19.30;8.20;;;;;;;-0.44;86.71;99300.85;106242;1277;138596;-79
2022/01/15 03:28:24;;;;;;;22.50;8.70;;;;;;;-0.45;86.63;99302.94;105957;1277;25609;-79
2022/01/15 03:30:50;;;;;;;19.40;8.80;;;;;;;-0.48;86.70;99301.95;106098;1277;27642;-80
2022/01/15 03:33:16;;;;;;;29.90;11.10;;;;;;;-0.51;86.75;99301.85;105834;1277;139045;-80
2022/01/15 03:35:43;;;;;;;24.60;11.20;;;;;;;-0.52;86.80;99302.20;106186;1277;25245;-79
2022/01/15 03:38:10;;;;;;;24.70;10.20;;;;;;;-0.53;87.04;99306.77;106185;1277;138111;-79
2022/01/15 03:40:36;;;;;;;24.80;10.40;;;;;;;-0.54;87.01;99304.33;106310;1277;22560;-79
2022/01/15 03:43:04;;;;;;;22.90;8.00;;;;;;;-0.54;87.12;99307.58;106148;1277;22732;-79
2022/01/15 03:45:31;;;;;;;17.80;6.50;;;;;;;-0.56;87.23;99309.96;106313;1277;137585;-80
2022/01/15 03:47:58;;;;;;;27.30;9.20;;;;;;;-0.60;87.11;99311.87;106205;1277;22637;-79
2022/01/15 03:50:26;;;;;;;25.10;9.20;;;;;;;-0.62;87.13;99312.42;106142;1277;138702;-79
2022/01/15 03:53:07;;;;;;;20.10;8.00;;;;;;;-0.63;87.35;99311.95;106383;1277;22572;-80
2022/01/15 03:55:33;;;;;;;21.40;8.80;;;;;;;-0.62;87.29;99315.83;106362;1277;22556;-80
2022/01/15 03:58:00;;;;;;;19.90;7.70;;;;;;;-0.63;87.10;99319.10;106040;1277;137887;-82
2022/01/15 04:00:28;;;;;;;24.40;7.90;;;;;;;-0.64;87.23;99319.26;105891;1277;22594;-79
2022/01/15 04:02:56;;;;;;;27.40;8.20;;;;;;;-0.65;87.50;99325.90;105843;1278;137875;-79
2022/01/15 04:05:24;;;;;;;26.90;9.10;;;;;;;-0.67;87.35;99330.36;105989;1278;25440;-79
2022/01/15 04:07:50;;;;;;;17.60;8.00;;;;;;;-0.67;87.33;99329.48;105890;1277;24940;-82
2022/01/15 04:10:19;;;;;;;26.30;7.90;;;;;;;-0.66;87.40;99326.41;106187;1278;22719;-81
2022/01/15 04:12:48;;;;;;;19.30;7.40;;;;;;;-0.68;87.20;99324.46;106030;1278;22731;-80
2022/01/15 04:15:16;;;;;;;18.90;6.90;;;;;;;-0.70;87.36;99324.63;106018;1277;137570;-80
2022/01/15 04:17:45;;;;;;;23.30;8.20;;;;;;;-0.73;87.43;99327.78;106258;1277;24275;-79
2022/01/15 04:20:13;;;;;;;23.20;8.00;;;;;;;-0.74;87.52;99327.77;106206;1277;138557;-80
2022/01/15 04:22:40;;;;;;;21.20;7.60;;;;;;;-0.75;87.55;99329.23;106222;1277;22649;-79
2022/01/15 04:25:06;;;;;;;21.00;7.70;;;;;;;-0.77;87.58;99323.30;106165;1277;22602;-81
2022/01/15 04:27:33;;;;;;;22.70;7.60;;;;;;;-0.79;87.63;99326.89;106013;1277;137870;-80
2022/01/15 04:30:03;;;;;;;19.30;8.80;;;;;;;-0.82;87.77;99327.89;105980;1277;25392;-79
2022/01/15 04:32:31;;;;;;;21.50;8.40;;;;;;;-0.84;87.73;99323.29;106053;1277;138561;-79
2022/01/15 04:34:58;;;;;;;26.00;8.60;;;;;;;-0.85;87.83;99320.97;106212;1277;22645;-78
2022/01/15 04:37:33;;;;;;;19.60;7.70;;;;;;;-0.86;87.55;99326.17;105967;1277;22563;-78
2022/01/15 04:39:59;;;;;;;15.80;7.60;;;;;;;-0.86;87.62;99326.18;105914;1277;138251;-77
2022/01/15 04:42:26;;;;;;;22.10;8.00;;;;;;;-0.87;87.71;99324.91;106006;1277;22567;-77
2022/01/15 04:44:52;;;;;;;20.10;7.80;;;;;;;-0.90;87.62;99327.30;105944;1277;137587;-77
2022/01/15 04:47:18;;;;;;;24.50;9.70;;;;;;;-0.92;87.64;99330.72;106168;1277;22563;-79
2022/01/15 04:49:44;;;;;;;20.40;9.80;;;;;;;-0.95;87.53;99331.73;105992;1277;24279;-78
2022/01/15 04:52:11;;;;;;;20.40;9.20;;;;;;;-0.96;87.48;99329.67;105853;1277;138590;-77
2022/01/15 04:54:37;;;;;;;23.60;9.40;;;;;;;-0.97;87.59;99328.80;106101;1277;25408;-78
2022/01/15 04:57:03;;;;;;;22.40;8.80;;;;;;;-0.98;87.56;99329.45;105830;1277;137510;-77
2022/01/15 04:59:29;;;;;;;21.60;8.60;;;;;;;-1.00;87.58;99325.58;105848;1277;22535;-77
2022/01/15 05:01:56;;;;;;;29.90;10.80;;;;;;;-1.02;87.64;99325.24;105793;1277;137791;-77
2022/01/15 05:04:22;;;;;;;28.20;10.10;;;;;;;-1.05;87.57;99329.77;105830;1277;22623;-77
2022/01/15 05:06:48;;;;;;;20.40;8.10;;;;;;;-1.05;87.62;99332.87;105850;1280;23161;-79
2022/01/15 05:09:15;;;;;;;22.00;9.70;;;;;;;-1.07;87.74;99338.20;106023;1277;137857;-80
2022/01/15 05:14:27;;;;;;;34.20;10.00;;;;;;;-1.10;87.71;99349.21;105860;1277;137796;-78
2022/01/15 05:16:53;;;;;;;34.90;12.00;;;;;;;-1.12;87.85;99354.98;105740;1277;22550;-78
2022/01/15 05:19:19;;;;;;;36.90;14.70;;;;;;;-1.14;87.90;99350.50;105957;1276;24238;-78
2022/01/15 05:21:45;;;;;;;24.20;11.60;;;;;;;-1.15;87.85;99346.79;105776;1277;138383;-78
2022/01/15 05:24:12;;;;;;;34.00;14.00;;;;;;;-1.15;87.92;99346.23;105961;1277;23743;-78
2022/01/15 05:26:38;;;;;;;33.10;12.70;;;;;;;-1.14;87.96;99349.73;105884;1277;137822;-79
2022/01/15 05:29:04;;;;;;;34.40;13.60;;;;;;;-1.13;88.16;99352.55;105975;1277;22704;-78
2022/01/15 05:31:30;;;;;;;38.70;15.00;;;;;;;-1.15;88.23;99356.95;105958;1277;22653;-78
2022/01/15 05:33:57;;;;;;;29.10;12.80;;;;;;;-1.16;88.02;99360.61;105681;1277;138199;-79
2022/01/15 05:36:23;;;;;;;25.90;10.30;;;;;;;-1.15;88.27;99357.70;105648;1277;24211;-79
2022/01/15 05:38:49;;;;;;;31.70;11.40;;;;;;;-1.14;88.01;99358.13;105915;1277;138830;-79
2022/01/15 05:41:15;;;;;;;28.20;11.40;;;;;;;-1.13;88.19;99362.88;106180;1277;25456;-80
2022/01/15 05:43:42;;;;;;;24.60;9.30;;;;;;;-1.13;88.07;99358.04;105960;1277;22634;-79
2022/01/15 05:46:08;;;;;;;25.80;10.00;;;;;;;-1.14;88.10;99357.25;105892;1277;137766;-79
2022/01/15 05:48:34;;;;;;;24.10;9.90;;;;;;;-1.14;87.94;99365.40;105906;1277;26069;-79
2022/01/15 05:51:00;;;;;;;15.90;8.10;;;;;;;-1.12;88.06;99368.49;105792;1277;138420;-79
2022/01/15 05:53:27;;;;;;;23.90;8.30;;;;;;;-1.11;87.88;99374.63;105846;1277;22557;-80
2022/01/15 05:55:53;;;;;;;19.70;9.60;;;;;;;-1.11;87.79;99375.48;105803;1277;138261;-79
2022/01/15 05:58:19;;;;;;;20.50;8.40;;;;;;;-1.10;87.94;99374.73;105828;1277;24288;-79
2022/01/15 06:00:45;;;;;;;32.30;10.60;;;;;;;-1.12;87.93;99376.52;105887;1277;25254;-79
2022/01/15 06:03:11;;;;;;;26.80;10.90;;;;;;;-1.12;88.00;99379.01;105821;1277;138562;-79
2022/01/15 06:05:38;;;;;;;18.70;8.60;;;;;;;-1.11;87.98;99382.95;105886;1277;22563;-80
2022/01/15 06:08:05;;;;;;;19.50;8.90;;;;;;;-1.09;87.75;99383.37;105901;1277;138747;-79
2022/01/15 06:10:33;;;;;;;17.70;9.00;;;;;;;-1.10;87.97;99385.51;106062;1277;22633;-81
2022/01/15 06:12:59;;;;;;;27.20;11.80;;;;;;;-1.11;88.14;99388.13;105935;1277;24440;-81
2022/01/15 06:15:26;;;;;;;20.00;9.00;;;;;;;-1.12;87.79;99391.85;105954;1277;138501;-81
2022/01/15 06:17:52;;;;;;;22.60;9.30;;;;;;;-1.13;87.71;99391.04;105899;1277;25329;-80
2022/01/15 06:20:18;;;;;;;25.00;9.20;;;;;;;-1.13;87.69;99393.85;105912;1277;139406;-79
2022/01/15 06:22:44;;;;;;;25.10;9.30;;;;;;;-1.12;87.86;99393.09;105999;1277;23249;-80
2022/01/15 06:25:13;;;;;;;21.80;9.80;;;;;;;-1.12;87.91;99391.95;106151;1277;22556;-81
2022/01/15 06:27:42;;;;;;;25.20;9.40;;;;;;;-1.11;87.75;99388.02;105858;1277;137716;-80
2022/01/15 06:30:09;;;;;;;28.70;10.80;;;;;;;-1.12;87.75;99386.84;105767;1277;22547;-82
2022/01/15 06:32:36;;;;;;;28.50;10.40;;;;;;;-1.14;87.54;99387.89;105877;1277;138742;-82
2022/01/15 06:35:08;;;;;;;25.90;10.70;;;;;;;-1.14;87.83;99389.18;105903;1277;22567;-80
2022/01/15 06:37:34;;;;;;;24.90;10.20;;;;;;;-1.13;87.60;99395.64;106051;1277;22958;-80
2022/01/15 06:40:01;;;;;;;23.60;9.90;;;;;;;-1.14;87.54;99394.27;105764;1277;137998;-81
2022/01/15 06:42:27;;;;;;;26.70;10.00;;;;;;;-1.15;87.66;99392.77;106004;1277;22557;-81
2022/01/15 06:44:53;;;;;;;25.00;11.00;;;;;;;-1.16;87.72;99390.02;105893;1277;138215;-82
2022/01/15 06:47:21;;;;;;;26.60;12.10;;;;;;;-1.15;87.67;99388.86;105975;1277;25284;-80
2022/01/15 06:49:47;;;;;;;21.40;9.70;;;;;;;-1.14;87.74;99384.65;106094;1279;25433;-81
2022/01/15 06:52:14;;;;;;;20.10;8.80;;;;;;;-1.12;87.71;99385.38;106206;1280;137632;-81
2022/01/15 06:54:40;;;;;;;17.10;7.90;;;;;;;-1.12;87.75;99381.96;106378;1277;25437;-81
2022/01/15 06:57:07;;;;;;;24.90;10.20;;;;;;;-1.14;87.66;99383.95;105846;1277;138044;-81
2022/01/15 06:59:33;;;;;;;22.10;10.00;;;;;;;-1.13;87.64;99387.27;105987;1277;24001;-80
2022/01/15 07:01:59;;;;;;;23.40;11.30;;;;;;;-1.12;87.68;99385.95;105673;1277;138873;-83
2022/01/15 07:04:25;;;;;;;24.30;10.20;;;;;;;-1.10;87.40;99392.54;105975;1277;25340;-81
2022/01/15 07:06:51;;;;;;;22.90;10.20;;;;;;;-1.10;87.53;99390.48;106014;1277;25391;-81
2022/01/15 07:09:17;;;;;;;18.00;9.30;;;;;;;-1.08;87.59;99394.81;106169;1277;137767;-80
2022/01/15 07:11:44;;;;;;;25.30;11.10;;;;;;;-1.07;87.70;99394.02;105991;1277;22643;-83
2022/01/15 07:14:10;;;;;;;25.00;10.90;;;;;;;-1.06;87.55;99397.31;106138;1277;138829;-82
2022/01/15 07:16:36;;;;;;;22.40;10.10;;;;;;;-1.03;87.65;99394.31;105955;1277;23360;-82
2022/01/15 07:19:03;;;;;;;23.80;9.90;;;;;;;-1.00;87.46;99393.13;105696;1277;24073;-83
2022/01/15 07:21:29;;;;;;;25.50;10.30;;;;;;;-0.98;87.62;99387.05;105895;1277;137994;-82
2022/01/15 07:23:55;;;;;;;23.70;10.60;;;;;;;-0.97;87.44;99392.85;106011;1277;25469;-80
2022/01/15 07:26:22;;;;;;;26.60;11.50;;;;;;;-0.96;87.43;99396.67;105871;1277;138292;-81
2022/01/15 07:28:48;;;;;;;26.50;11.50;;;;;;;-0.95;87.48;99402.66;106153;1277;24276;-81
2022/01/15 07:31:14;;;;;;;19.20;10.00;;;;;;;-0.91;87.77;99410.30;105949;1277;22573;-81
2022/01/15 07:33:40;;;;;;;26.40;10.10;;;;;;;-0.88;87.14;99415.52;105808;1280;138416;-83
2022/01/15 07:36:07;;;;;;;22.50;9.90;;;;;;;-0.85;87.28;99424.35;106104;1277;25267;-82
2022/01/15 07:38:35;;;;;;;22.80;10.40;;;;;;;-0.84;87.24;99427.05;105819;1277;137984;-83
2022/01/15 07:41:01;;;;;;;25.20;9.90;;;;;;;-0.82;87.15;99430.74;106267;1277;22572;-82
2022/01/15 07:43:27;;;;;;;26.00;10.80;;;;;;;-0.80;87.22;99429.22;106499;1277;22832;-81
2022/01/15 07:45:54;;;;;;;23.70;9.70;;;;;;;-0.77;87.01;99429.11;106197;1277;138796;-83
2022/01/15 07:48:21;;;;;;;21.40;8.80;;;;;;;-0.73;87.03;99434.58;106992;1277;24313;-82
2022/01/15 07:50:48;;;;;;;24.70;8.60;;;;;;;-0.70;87.19;99435.40;106041;1277;137980;-83
2022/01/15 07:53:14;;;;;;;31.20;10.60;;;;;;;-0.69;86.93;99444.15;106078;1277;22840;-83
2022/01/15 07:55:41;;;;;;;24.50;10.40;;;;;;;-0.67;86.93;99441.65;106125;1277;23176;-82
2022/01/15 07:58:08;;;;;;;23.20;10.30;;;;;;;-0.65;86.88;99440.96;106147;1277;138675;-83
2022/01/15 08:00:34;;;;;;;22.20;9.60;;;;;;;-0.62;86.80;99437.98;106477;1277;23221;-83
2022/01/15 08:03:01;;;;;;;26.90;9.10;;;;;;;-0.59;86.85;99440.12;106601;1277;138624;-83
2022/01/15 08:05:27;;;;;;;23.70;10.40;;;;;;;-0.55;86.64;99438.79;106182;1277;24228;-83
2022/01/15 08:07:53;;;;;;;24.30;9.20;;;;;;;-0.52;86.79;99444.34;106097;1277;22634;-83
2022/01/15 08:10:20;;;;;;;23.20;9.60;;;;;;;-0.51;86.32;99445.80;106339;1277;137766;-83
2022/01/15 08:12:49;;;;;;;27.30;9.60;;;;;;;-0.48;86.34;99444.29;106315;1277;24305;-84
2022/01/15 08:15:16;;;;;;;;;;;;;;;-0.45;86.16;99445.42;106339;1277;138450;-84
2022/01/15 08:17:42;;;;;;;17.90;8.10;;;;;;;-0.41;86.42;99438.75;106392;1277;22547;-83
2022/01/15 08:20:10;;;;;;;21.40;9.50;;;;;;;-0.35;86.29;99444.60;105959;1277;137702;-82
2022/01/15 08:22:36;;;;;;;20.20;8.60;;;;;;;-0.31;86.02;99442.31;106040;1277;22595;-85
2022/01/15 08:25:03;;;;;;;31.20;10.80;;;;;;;-0.29;86.05;99442.05;106776;1277;23346;-83
2022/01/15 08:27:29;;;;;;;20.40;9.20;;;;;;;-0.26;85.75;99443.70;106543;1277;138160;-85
2022/01/15 08:29:55;;;;;;;27.40;11.10;;;;;;;-0.22;85.69;99442.44;106178;1277;25264;-85
2022/01/15 08:32:21;;;;;;;23.20;10.10;;;;;;;-0.18;85.39;99438.16;105602;1277;138238;-84
2022/01/15 08:34:48;;;;;;;21.10;9.60;;;;;;;-0.14;85.30;99434.20;106113;1277;25272;-85
2022/01/15 08:37:14;;;;;;;23.10;9.80;;;;;;;-0.12;85.35;99430.79;105981;1277;25252;-83
2022/01/15 08:39:40;;;;;;;29.70;12.00;;;;;;;-0.10;85.22;99438.94;105982;1277;137658;-84
2022/01/15 08:42:09;;;;;;;27.40;9.80;;;;;;;-0.07;85.04;99440.67;106273;1277;23046;-83
2022/01/15 08:44:40;;;;;;;24.90;10.30;;;;;;;-0.04;85.09;99436.70;106290;1277;138104;-83
2022/01/15 08:47:06;;;;;;;23.60;9.60;;;;;;;0.01;84.63;99434.72;106429;1277;25308;-82
2022/01/15 08:49:32;;;;;;;25.30;11.20;;;;;;;0.03;84.55;99437.02;106048;1277;22576;-82
2022/01/15 08:51:59;;;;;;;21.80;9.70;;;;;;;0.05;84.51;99443.23;106295;1277;137674;-84
2022/01/15 08:54:25;;;;;;;26.90;10.40;;;;;;;0.06;84.20;99445.21;106353;1277;25406;-83
2022/01/15 08:56:51;;;;;;;23.80;10.80;;;;;;;0.09;84.49;99447.66;106139;1277;139269;-83
2022/01/15 08:59:18;;;;;;;24.50;10.20;;;;;;;0.14;84.11;99446.77;106254;1277;22589;-83
2022/01/15 09:01:45;;;;;;;27.90;11.10;;;;;;;0.18;84.23;99444.76;106289;1277;24411;-82
2022/01/15 09:04:11;;;;;;;27.30;10.10;;;;;;;0.21;84.10;99448.37;105892;1279;137492;-82
2022/01/15 09:06:41;;;;;;;19.80;9.40;;;;;;;0.23;84.05;99444.23;106052;1280;22590;-83
2022/01/15 09:09:07;;;;;;;29.10;12.10;;;;;;;0.25;83.63;99439.79;106079;1277;137794;-83
2022/01/15 09:11:33;;;;;;;19.80;9.50;;;;;;;0.28;83.51;99444.84;106310;1277;24230;-82
2022/01/15 09:13:59;;;;;;;24.30;10.40;;;;;;;0.32;83.46;99445.88;106210;1277;23552;-82
2022/01/15 09:16:26;;;;;;;21.00;9.70;;;;;;;0.35;83.10;99442.09;106303;1277;137410;-84
2022/01/15 09:18:52;;;;;;;26.40;10.30;;;;;;;0.39;83.25;99441.39;106092;1277;22589;-82
2022/01/15 09:21:18;;;;;;;24.20;9.60;;;;;;;0.41;83.17;99438.52;106220;1277;137643;-83
2022/01/15 09:23:45;;;;;;;25.60;10.10;;;;;;;0.44;83.13;99433.08;106162;1277;24293;-82
2022/01/15 09:26:20;;;;;;;35.60;13.10;;;;;;;0.47;83.23;99433.46;106255;1277;138213;-82
2022/01/15 09:31:35;;;;;;;29.10;11.30;;;;;;;0.58;82.83;99438.08;106090;1277;30540;-83
2022/01/15 09:34:03;;;;;;;23.80;10.30;;;;;;;0.65;82.35;99432.77;105939;1277;137655;-82
2022/01/15 09:36:29;;;;;;;22.00;10.00;;;;;;;0.70;82.14;99430.96;105891;1277;22584;-78
2022/01/15 09:38:55;;;;;;;24.90;10.20;;;;;;;0.76;81.95;99431.73;106227;1277;137567;-81
2022/01/15 09:41:23;;;;;;;22.50;10.20;;;;;;;0.80;81.82;99426.35;106718;1277;22547;-77
2022/01/15 09:43:50;;;;;;;26.70;10.70;;;;;;;0.87;81.74;99427.91;105980;1277;23298;-79
2022/01/15 09:46:18;;;;;;;22.20;10.10;;;;;;;0.97;81.47;99422.47;105725;1277;137999;-81
2022/01/15 09:48:47;;;;;;;22.80;8.80;;;;;;;1.04;81.29;99418.19;106032;1277;197637;-79
2022/01/15 09:51:14;;;;;;;18.50;9.60;;;;;;;1.10;80.49;99420.90;106666;1277;138578;-82
2022/01/15 09:53:41;;;;;;;20.50;8.50;;;;;;;1.14;79.80;99419.36;106031;1277;23352;-82
2022/01/15 09:56:09;;;;;;;16.40;8.20;;;;;;;1.17;78.68;99416.61;106061;1277;137541;-82
2022/01/15 09:58:35;;;;;;;18.70;8.00;;;;;;;1.19;78.87;99415.13;105876;1277;24230;-83
2022/01/15 10:01:02;;;;;;;23.70;8.40;;;;;;;1.21;79.03;99411.32;105668;1280;25484;-83
2022/01/15 10:03:28;;;;;;;23.90;9.70;;;;;;;1.24;78.47;99412.67;106051;1277;138144;-82
2022/01/15 10:05:55;;;;;;;19.10;7.80;;;;;;;1.27;78.20;99412.65;106882;1277;22551;-82
2022/01/15 10:08:21;;;;;;;26.20;8.90;;;;;;;1.31;77.90;99408.65;105903;1277;138032;-83
2022/01/15 10:10:51;;;;;;;17.40;8.50;;;;;;;1.36;78.18;99408.55;106216;1277;25255;-84
2022/01/15 10:13:23;;;;;;;17.70;7.90;;;;;;;1.40;76.02;99408.27;105930;1277;22543;-84
2022/01/15 10:16:04;;;;;;;15.70;6.30;;;;;;;1.42;76.29;99403.61;105687;1278;137438;-84
2022/01/15 10:18:33;;;;;;;21.20;7.60;;;;;;;1.46;75.15;99407.15;105831;1278;25260;-83
2022/01/15 10:21:16;;;;;;;18.40;7.80;;;;;;;1.48;74.54;99403.83;105827;1277;138181;-82
2022/01/15 10:23:55;;;;;;;14.90;6.70;;;;;;;1.55;74.25;99410.50;105965;1277;22549;-82
2022/01/15 10:26:27;;;;;;;11.10;5.80;;;;;;;1.61;74.24;99415.75;105862;1280;137749;-83
2022/01/15 10:28:59;;;;;;;11.30;5.00;;;;;;;1.65;73.54;99416.89;106297;1279;23967;-83
2022/01/15 10:31:32;;;;;;;18.30;6.70;;;;;;;1.70;72.98;99414.98;105715;1280;24303;-85
2022/01/15 10:34:00;;;;;;;18.50;6.50;;;;;;;1.73;73.00;99416.63;105782;1280;137576;-88
2022/01/15 10:36:31;;;;;;;17.00;6.80;;;;;;;1.75;72.97;99414.58;105944;1280;22567;-88
2022/01/15 10:39:18;;;;;;;15.70;5.70;;;;;;;1.78;72.67;99417.27;105910;1277;137395;-85
2022/01/15 10:41:46;;;;;;;21.30;6.00;;;;;;;1.81;72.00;99418.63;106057;1280;23227;-84
2022/01/15 10:44:33;;;;;;;11.70;5.10;;;;;;;1.85;71.66;99421.88;105954;1277;138316;-84
2022/01/15 10:47:10;;;;;;;21.10;6.60;;;;;;;1.90;70.75;99426.02;106033;1277;23082;-82
2022/01/15 10:49:39;;;;;;;15.30;5.50;;;;;;;1.96;71.39;99427.98;105887;1277;22689;-87
2022/01/15 10:52:21;;;;;;;17.70;6.30;;;;;;;2.00;71.16;99419.99;105852;1278;137746;-81
2022/01/15 10:55:15;;;;;;;13.90;5.80;;;;;;;2.06;70.73;99423.77;106129;1277;22569;-83
2022/01/15 10:57:53;;;;;;;10.70;4.20;;;;;;;2.09;70.20;99423.64;105695;1277;137574;-83
2022/01/15 11:00:20;;;;;;;14.20;5.00;;;;;;;2.12;69.47;99431.54;105815;1277;22566;-84
2022/01/15 11:02:49;;;;;;;11.90;4.50;;;;;;;2.15;69.55;99431.96;105921;1277;137594;-81
2022/01/15 11:05:24;;;;;;;15.40;5.90;;;;;;;2.18;69.38;99428.81;106163;1278;22566;-82
2022/01/15 11:07:53;;;;;;;14.30;5.70;;;;;;;2.21;68.97;99428.27;107300;1277;22587;-83
2022/01/15 11:10:20;;;;;;;12.30;4.50;;;;;;;2.25;69.25;99424.12;106310;1277;138298;-80
2022/01/15 11:12:46;;;;;;;12.20;4.40;;;;;;;2.30;69.27;99419.02;106303;1277;22614;-79
2022/01/15 11:15:13;;;;;;;16.10;3.90;;;;;;;2.37;68.51;99424.92;106082;1277;137402;-80
2022/01/15 11:17:40;;;;;;;15.40;5.10;;;;;;;2.41;68.66;99427.18;105921;1277;25387;-81
2022/01/15 11:20:10;;;;;;;11.70;4.30;;;;;;;2.44;68.39;99426.59;106082;1277;24366;-80
2022/01/15 11:22:36;;;;;;;12.90;4.70;;;;;;;2.49;68.49;99421.65;106623;1277;137052;-80
2022/01/15 11:25:03;;;;;;;14.30;4.20;;;;;;;2.52;67.59;99423.69;106164;1277;25267;-80
2022/01/15 11:27:30;;;;;;;19.80;4.70;;;;;;;2.52;67.13;99419.54;106022;1278;137390;-80
2022/01/15 11:29:58;;;;;;;10.50;4.60;;;;;;;2.53;66.36;99414.39;106274;1277;25327;-79
2022/01/15 11:32:27;;;;;;;13.10;4.50;;;;;;;2.52;66.22;99411.30;105932;1277;137827;-79
2022/01/15 11:35:09;;;;;;;17.30;5.20;;;;;;;2.53;66.99;99411.56;105915;1277;24841;-79
2022/01/15 11:37:42;;;;;;;14.60;4.40;;;;;;;2.55;66.68;99411.52;106333;1277;22662;-79
2022/01/15 11:40:34;;;;;;;11.00;4.00;;;;;;;2.58;66.32;99409.92;105959;1277;137744;-81
2022/01/15 11:43:25;;;;;;;19.10;4.10;;;;;;;2.62;66.43;99409.48;105905;1280;24261;-79
2022/01/15 11:45:57;;;;;;;17.00;4.50;;;;;;;2.63;66.73;99409.11;106437;1277;137407;-79